sensor_id;sensor_type;location;lat;lon;timestamp;pressure;altitude;pressure_sealevel;temperature;humidity
46448;BME280;32145;50.390;30.778;2023-04-20T00:00:23;99833.09;;;9.61;59.42
46448;BME280;32145;50.390;30.778;2023-04-20T00:03:21;99832.28;;;9.61;59.03
46448;BME280;32145;50.390;30.778;2023-04-20T00:06:17;99823.78;;;9.57;58.49
46448;BME280;32145;50.390;30.778;2023-04-20T00:09:14;99831.47;;;9.60;59.56
46448;BME280;32145;50.390;30.778;2023-04-20T00:12:10;99824.41;;;9.59;59.55
46448;BME280;32145;50.390;30.778;2023-04-20T00:15:07;99825.47;;;9.58;59.41
46448;BME280;32145;50.390;30.778;2023-04-20T00:18:03;99830.03;;;9.58;59.22
46448;BME280;32145;50.390;30.778;2023-04-20T00:21:01;99823.22;;;9.55;59.54
46448;BME280;32145;50.390;30.778;2023-04-20T00:23:57;99821.53;;;9.54;59.67
46448;BME280;32145;50.390;30.778;2023-04-20T00:26:53;99809.28;;;9.51;58.68
46448;BME280;32145;50.390;30.778;2023-04-20T00:29:48;99820.34;;;9.50;58.52
46448;BME280;32145;50.390;30.778;2023-04-20T00:32:42;99808.47;;;9.51;59.24
46448;BME280;32145;50.390;30.778;2023-04-20T00:35:38;99807.88;;;9.49;58.73
46448;BME280;32145;50.390;30.778;2023-04-20T00:38:36;99805.78;;;9.51;59.48
46448;BME280;32145;50.390;30.778;2023-04-20T00:41:33;99799.16;;;9.47;58.80
46448;BME280;32145;50.390;30.778;2023-04-20T00:44:27;99800.34;;;9.51;59.81
46448;BME280;32145;50.390;30.778;2023-04-20T00:47:21;99803.28;;;9.49;60.16
46448;BME280;32145;50.390;30.778;2023-04-20T00:50:18;99799.53;;;9.50;60.67
46448;BME280;32145;50.390;30.778;2023-04-20T00:53:14;99791.63;;;9.49;60.17
46448;BME280;32145;50.390;30.778;2023-04-20T00:56:13;99786.84;;;9.51;60.43
46448;BME280;32145;50.390;30.778;2023-04-20T00:59:10;99787.50;;;9.46;59.72
46448;BME280;32145;50.390;30.778;2023-04-20T01:02:07;99782.09;;;9.46;59.93
46448;BME280;32145;50.390;30.778;2023-04-20T01:05:03;99781.75;;;9.43;59.56
46448;BME280;32145;50.390;30.778;2023-04-20T01:08:00;99784.22;;;9.44;59.71
46448;BME280;32145;50.390;30.778;2023-04-20T01:10:56;99776.31;;;9.43;60.04
46448;BME280;32145;50.390;30.778;2023-04-20T01:13:54;99780.69;;;9.44;59.96
46448;BME280;32145;50.390;30.778;2023-04-20T01:16:50;99771.72;;;9.43;60.02
46448;BME280;32145;50.390;30.778;2023-04-20T01:19:46;99775.84;;;9.46;60.92
46448;BME280;32145;50.390;30.778;2023-04-20T01:22:46;99770.44;;;9.46;60.79
46448;BME280;32145;50.390;30.778;2023-04-20T01:25:34;99770.69;;;9.44;60.73
46448;BME280;32145;50.390;30.778;2023-04-20T01:28:31;99776.09;;;9.44;59.87
46448;BME280;32145;50.390;30.778;2023-04-20T01:31:27;99774.19;;;9.45;60.28
46448;BME280;32145;50.390;30.778;2023-04-20T01:34:23;99777.97;;;9.44;60.14
46448;BME280;32145;50.390;30.778;2023-04-20T01:37:17;99771.72;;;9.43;60.53
46448;BME280;32145;50.390;30.778;2023-04-20T01:40:13;99772.78;;;9.42;60.10
46448;BME280;32145;50.390;30.778;2023-04-20T01:43:08;99770.06;;;9.42;60.15
46448;BME280;32145;50.390;30.778;2023-04-20T01:46:02;99764.66;;;9.42;60.23
46448;BME280;32145;50.390;30.778;2023-04-20T01:48:59;99762.19;;;9.40;60.10
46448;BME280;32145;50.390;30.778;2023-04-20T01:51:55;99754.69;;;9.43;60.59
46448;BME280;32145;50.390;30.778;2023-04-20T01:54:51;99751.38;;;9.40;60.29
46448;BME280;32145;50.390;30.778;2023-04-20T01:57:49;99755.34;;;9.38;59.82
46448;BME280;32145;50.390;30.778;2023-04-20T02:00:45;99751.22;;;9.35;59.51
46448;BME280;32145;50.390;30.778;2023-04-20T02:03:41;99745.81;;;9.35;59.11
46448;BME280;32145;50.390;30.778;2023-04-20T02:06:38;99748.13;;;9.32;58.95
46448;BME280;32145;50.390;30.778;2023-04-20T02:09:34;99758.16;;;9.31;59.19
46448;BME280;32145;50.390;30.778;2023-04-20T02:12:30;99743.22;;;9.28;59.02
46448;BME280;32145;50.390;30.778;2023-04-20T02:15:28;99742.97;;;9.30;58.81
46448;BME280;32145;50.390;30.778;2023-04-20T02:18:24;99735.91;;;9.29;58.79
46448;BME280;32145;50.390;30.778;2023-04-20T02:21:19;99744.00;;;9.29;58.74
46448;BME280;32145;50.390;30.778;2023-04-20T02:24:13;99743.22;;;9.28;58.69
46448;BME280;32145;50.390;30.778;2023-04-20T02:27:07;99735.91;;;9.29;58.43
46448;BME280;32145;50.390;30.778;2023-04-20T02:30:02;99734.84;;;9.30;58.08
46448;BME280;32145;50.390;30.778;2023-04-20T02:32:59;99729.19;;;9.32;58.70
46448;BME280;32145;50.390;30.778;2023-04-20T02:35:56;99722.16;;;9.31;58.16
46448;BME280;32145;50.390;30.778;2023-04-20T02:38:52;99724.41;;;9.34;58.27
46448;BME280;32145;50.390;30.778;2023-04-20T02:41:48;99719.84;;;9.34;57.90
46448;BME280;32145;50.390;30.778;2023-04-20T02:44:45;99725.25;;;9.34;57.92
46448;BME280;32145;50.390;30.778;2023-04-20T02:47:39;99723.94;;;9.37;58.32
46448;BME280;32145;50.390;30.778;2023-04-20T02:50:35;99718.53;;;9.37;58.16
46448;BME280;32145;50.390;30.778;2023-04-20T02:53:29;99726.03;;;9.35;57.47
46448;BME280;32145;50.390;30.778;2023-04-20T02:56:23;99719.84;;;9.34;57.05
46448;BME280;32145;50.390;30.778;2023-04-20T02:59:20;99724.19;;;9.35;57.60
46448;BME280;32145;50.390;30.778;2023-04-20T03:02:16;99723.13;;;9.36;57.31
46448;BME280;32145;50.390;30.778;2023-04-20T03:05:12;99727.94;;;9.34;57.36
46448;BME280;32145;50.390;30.778;2023-04-20T03:08:10;99726.28;;;9.33;57.87
46448;BME280;32145;50.390;30.778;2023-04-20T03:11:00;99727.13;;;9.34;59.21
46448;BME280;32145;50.390;30.778;2023-04-20T03:13:55;99719.66;;;9.29;58.24
46448;BME280;32145;50.390;30.778;2023-04-20T03:16:49;99725.31;;;9.27;58.27
46448;BME280;32145;50.390;30.778;2023-04-20T03:19:43;99723.44;;;9.28;59.71
46448;BME280;32145;50.390;30.778;2023-04-20T03:22:38;99715.78;;;9.25;58.95
46448;BME280;32145;50.390;30.778;2023-04-20T03:25:33;99725.31;;;9.27;59.42
46448;BME280;32145;50.390;30.778;2023-04-20T03:28:28;99719.91;;;9.27;59.30
46448;BME280;32145;50.390;30.778;2023-04-20T03:31:22;99719.91;;;9.27;59.43
46448;BME280;32145;50.390;30.778;2023-04-20T03:34:17;99729.91;;;9.27;58.78
46448;BME280;32145;50.390;30.778;2023-04-20T03:37:11;99720.50;;;9.30;60.10
46448;BME280;32145;50.390;30.778;2023-04-20T03:40:06;99725.31;;;9.27;60.59
46448;BME280;32145;50.390;30.778;2023-04-20T03:43:02;99733.06;;;9.24;59.61
46448;BME280;32145;50.390;30.778;2023-04-20T03:45:57;99722.25;;;9.24;59.51
46448;BME280;32145;50.390;30.778;2023-04-20T03:48:51;99721.19;;;9.25;60.19
46448;BME280;32145;50.390;30.778;2023-04-20T03:51:45;99723.88;;;9.25;60.00
46448;BME280;32145;50.390;30.778;2023-04-20T03:54:39;99727.78;;;9.29;60.61
46448;BME280;32145;50.390;30.778;2023-04-20T03:57:34;99723.44;;;9.28;60.87
46448;BME280;32145;50.390;30.778;2023-04-20T04:00:23;99728.72;;;9.23;60.45
46448;BME280;32145;50.390;30.778;2023-04-20T04:03:14;99722.25;;;9.24;61.73
46448;BME280;32145;50.390;30.778;2023-04-20T04:06:02;99729.38;;;9.18;61.74
46448;BME280;32145;50.390;30.778;2023-04-20T04:08:59;99727.13;;;9.15;62.25
46448;BME280;32145;50.390;30.778;2023-04-20T04:11:55;99722.19;;;9.12;62.60
46448;BME280;32145;50.390;30.778;2023-04-20T04:14:49;99730.53;;;9.10;63.26
46448;BME280;32145;50.390;30.778;2023-04-20T04:17:45;99727.44;;;9.07;63.67
46448;BME280;32145;50.390;30.778;2023-04-20T04:20:41;99721.06;;;9.01;63.88
46448;BME280;32145;50.390;30.778;2023-04-20T04:23:37;99723.56;;;9.02;64.82
46448;BME280;32145;50.390;30.778;2023-04-20T04:26:34;99720.72;;;8.97;64.60
46448;BME280;32145;50.390;30.778;2023-04-20T04:29:24;99725.91;;;8.99;65.20
46448;BME280;32145;50.390;30.778;2023-04-20T04:32:13;99729.19;;;9.01;65.39
46448;BME280;32145;50.390;30.778;2023-04-20T04:35:05;99732.34;;;8.98;65.10
46448;BME280;32145;50.390;30.778;2023-04-20T04:37:54;99725.91;;;8.99;66.08
46448;BME280;32145;50.390;30.778;2023-04-20T04:40:50;99728.22;;;8.95;65.69
46448;BME280;32145;50.390;30.778;2023-04-20T04:43:40;99716.59;;;8.95;66.57
46448;BME280;32145;50.390;30.778;2023-04-20T04:46:35;99724.09;;;8.93;66.99
46448;BME280;32145;50.390;30.778;2023-04-20T04:49:31;99726.03;;;8.85;67.28
46448;BME280;32145;50.390;30.778;2023-04-20T04:52:28;99723.31;;;8.85;67.55
46448;BME280;32145;50.390;30.778;2023-04-20T04:55:25;99729.19;;;8.82;67.66
46448;BME280;32145;50.390;30.778;2023-04-20T04:58:22;99722.75;;;8.83;67.80
46448;BME280;32145;50.390;30.778;2023-04-20T05:01:16;99719.22;;;8.83;68.64
46448;BME280;32145;50.390;30.778;2023-04-20T05:04:10;99720.50;;;8.80;68.65
46448;BME280;32145;50.390;30.778;2023-04-20T05:07:07;99730.69;;;8.78;68.74
46448;BME280;32145;50.390;30.778;2023-04-20T05:10:06;99708.25;;;8.77;69.29
46448;BME280;32145;50.390;30.778;2023-04-20T05:12:57;99714.31;;;8.73;69.37
46448;BME280;32145;50.390;30.778;2023-04-20T05:15:51;99723.50;;;8.72;69.74
46448;BME280;32145;50.390;30.778;2023-04-20T05:18:39;99716.88;;;8.68;70.16
46448;BME280;32145;50.390;30.778;2023-04-20T05:21:30;99727.53;;;8.62;70.23
46448;BME280;32145;50.390;30.778;2023-04-20T05:24:24;99717.78;;;8.61;70.59
46448;BME280;32145;50.390;30.778;2023-04-20T05:27:21;99717.78;;;8.61;71.01
46448;BME280;32145;50.390;30.778;2023-04-20T05:30:18;99731.50;;;8.60;71.05
46448;BME280;32145;50.390;30.778;2023-04-20T05:33:15;99722.59;;;8.59;71.97
46448;BME280;32145;50.390;30.778;2023-04-20T05:36:07;99717.00;;;8.54;71.96
46448;BME280;32145;50.390;30.778;2023-04-20T05:39:02;99726.38;;;8.51;72.36
46448;BME280;32145;50.390;30.778;2023-04-20T05:41:56;99717.47;;;8.51;72.69
46448;BME280;32145;50.390;30.778;2023-04-20T05:44:52;99727.81;;;8.54;72.92
46448;BME280;32145;50.390;30.778;2023-04-20T05:47:53;99724.09;;;8.55;73.00
46448;BME280;32145;50.390;30.778;2023-04-20T05:50:47;99730.09;;;8.57;73.06
46448;BME280;32145;50.390;30.778;2023-04-20T05:53:42;99721.53;;;8.60;73.17
46448;BME280;32145;50.390;30.778;2023-04-20T05:56:36;99727.31;;;8.64;73.17
46448;BME280;32145;50.390;30.778;2023-04-20T05:59:30;99724.56;;;8.71;72.97
46448;BME280;32145;50.390;30.778;2023-04-20T06:02:26;99734.66;;;8.75;72.98
46448;BME280;32145;50.390;30.778;2023-04-20T06:05:17;99731.75;;;8.77;73.09
46448;BME280;32145;50.390;30.778;2023-04-20T06:08:11;99728.81;;;8.79;73.21
46448;BME280;32145;50.390;30.778;2023-04-20T06:11:05;99728.16;;;8.83;73.29
46448;BME280;32145;50.390;30.778;2023-04-20T06:14:01;99721.81;;;8.89;73.39
46448;BME280;32145;50.390;30.778;2023-04-20T06:16:58;99728.66;;;8.92;73.37
46448;BME280;32145;50.390;30.778;2023-04-20T06:19:55;99734.75;;;8.87;73.63
46448;BME280;32145;50.390;30.778;2023-04-20T06:22:52;99726.19;;;8.91;73.39
46448;BME280;32145;50.390;30.778;2023-04-20T06:25:48;99719.88;;;8.97;73.56
46448;BME280;32145;50.390;30.778;2023-04-20T06:28:44;99715.22;;;9.04;73.72
46448;BME280;32145;50.390;30.778;2023-04-20T06:31:41;99714.16;;;9.05;73.66
46448;BME280;32145;50.390;30.778;2023-04-20T06:34:37;99696.19;;;9.11;73.78
46448;BME280;32145;50.390;30.778;2023-04-20T06:37:27;99702.56;;;9.17;73.80
46448;BME280;32145;50.390;30.778;2023-04-20T06:40:17;99685.66;;;9.21;73.29
46448;BME280;32145;50.390;30.778;2023-04-20T06:43:05;99693.47;;;9.30;73.67
46448;BME280;32145;50.390;30.778;2023-04-20T06:46:02;99683.50;;;9.42;73.15
46448;BME280;32145;50.390;30.778;2023-04-20T06:48:58;99682.47;;;9.55;73.13
46448;BME280;32145;50.390;30.778;2023-04-20T06:51:55;99683.66;;;9.59;72.67
46448;BME280;32145;50.390;30.778;2023-04-20T06:54:52;99687.66;;;9.57;72.45
46448;BME280;32145;50.390;30.778;2023-04-20T06:57:48;99692.13;;;9.51;72.64
46448;BME280;32145;50.390;30.778;2023-04-20T07:00:45;99686.72;;;9.51;72.36
46448;BME280;32145;50.390;30.778;2023-04-20T07:03:41;99681.53;;;9.49;72.53
46448;BME280;32145;50.390;30.778;2023-04-20T07:06:37;99679.03;;;9.48;72.05
46448;BME280;32145;50.390;30.778;2023-04-20T07:09:34;99680.09;;;9.47;71.99
46448;BME280;32145;50.390;30.778;2023-04-20T07:12:26;99674.22;;;9.50;71.75
46448;BME280;32145;50.390;30.778;2023-04-20T07:15:14;99673.97;;;9.51;71.77
46448;BME280;32145;50.390;30.778;2023-04-20T07:18:04;99667.03;;;9.56;71.08
46448;BME280;32145;50.390;30.778;2023-04-20T07:20:53;99665.28;;;9.61;70.80
46448;BME280;32145;50.390;30.778;2023-04-20T07:23:43;99663.78;;;9.65;70.16
46448;BME280;32145;50.390;30.778;2023-04-20T07:26:37;99668.16;;;9.66;69.79
46448;BME280;32145;50.390;30.778;2023-04-20T07:29:27;99661.06;;;9.65;69.79
46448;BME280;32145;50.390;30.778;2023-04-20T07:32:24;99672.97;;;9.64;69.27
46448;BME280;32145;50.390;30.778;2023-04-20T07:35:18;99664.00;;;9.64;69.56
46448;BME280;32145;50.390;30.778;2023-04-20T07:38:12;99668.59;;;9.63;69.22
46448;BME280;32145;50.390;30.778;2023-04-20T07:41:02;99668.59;;;9.63;69.56
46448;BME280;32145;50.390;30.778;2023-04-20T07:43:58;99658.97;;;9.67;69.69
46448;BME280;32145;50.390;30.778;2023-04-20T07:46:56;99667.19;;;9.73;68.86
46448;BME280;32145;50.390;30.778;2023-04-20T07:49:52;99674.75;;;9.71;68.93
46448;BME280;32145;50.390;30.778;2023-04-20T07:52:48;99657.09;;;9.68;69.28
46448;BME280;32145;50.390;30.778;2023-04-20T07:55:45;99661.56;;;9.62;69.17
46448;BME280;32145;50.390;30.778;2023-04-20T07:58:35;99664.84;;;9.64;69.40
46448;BME280;32145;50.390;30.778;2023-04-20T08:01:23;99659.44;;;9.64;68.98
46448;BME280;32145;50.390;30.778;2023-04-20T08:04:15;99661.28;;;9.64;69.37
46448;BME280;32145;50.390;30.778;2023-04-20T08:07:09;99656.13;;;9.62;68.66
46448;BME280;32145;50.390;30.778;2023-04-20T08:09:58;99665.78;;;9.58;69.12
46448;BME280;32145;50.390;30.778;2023-04-20T08:12:54;99682.47;;;9.55;68.89
46448;BME280;32145;50.390;30.778;2023-04-20T08:15:50;99658.81;;;9.50;69.32
46448;BME280;32145;50.390;30.778;2023-04-20T08:18:47;99675.03;;;9.50;69.88
46448;BME280;32145;50.390;30.778;2023-04-20T08:21:44;99673.63;;;9.48;70.16
46448;BME280;32145;50.390;30.778;2023-04-20T08:24:41;99674.31;;;9.43;70.32
46448;BME280;32145;50.390;30.778;2023-04-20T08:27:39;99679.59;;;9.38;71.02
46448;BME280;32145;50.390;30.778;2023-04-20T08:30:33;99671.13;;;9.34;71.09
46448;BME280;32145;50.390;30.778;2023-04-20T08:33:28;99674.75;;;9.28;71.41
46448;BME280;32145;50.390;30.778;2023-04-20T08:36:22;99668.72;;;9.26;71.93
46448;BME280;32145;50.390;30.778;2023-04-20T08:39:20;99675.53;;;9.17;72.73
46448;BME280;32145;50.390;30.778;2023-04-20T08:42:16;99675.16;;;9.13;72.86
46448;BME280;32145;50.390;30.778;2023-04-20T08:45:12;99672.69;;;9.11;73.01
46448;BME280;32145;50.390;30.778;2023-04-20T08:48:05;99679.97;;;9.11;73.09
46448;BME280;32145;50.390;30.778;2023-04-20T08:51:01;99679.28;;;9.15;73.28
46448;BME280;32145;50.390;30.778;2023-04-20T08:53:56;99686.13;;;9.18;73.27
46448;BME280;32145;50.390;30.778;2023-04-20T08:56:53;99674.63;;;9.23;72.90
46448;BME280;32145;50.390;30.778;2023-04-20T08:59:47;99675.81;;;9.27;72.93
46448;BME280;32145;50.390;30.778;2023-04-20T09:02:36;99671.38;;;9.33;72.43
46448;BME280;32145;50.390;30.778;2023-04-20T09:05:32;99681.47;;;9.37;72.44
46448;BME280;32145;50.390;30.778;2023-04-20T09:08:36;99678.31;;;9.40;71.99
46448;BME280;32145;50.390;30.778;2023-04-20T09:11:30;99686.44;;;9.40;72.03
46448;BME280;32145;50.390;30.778;2023-04-20T09:14:26;99686.44;;;9.40;72.07
46448;BME280;32145;50.390;30.778;2023-04-20T09:17:31;99688.06;;;9.41;72.11
46448;BME280;32145;50.390;30.778;2023-04-20T09:20:27;99683.16;;;9.38;71.97
46448;BME280;32145;50.390;30.778;2023-04-20T09:23:21;99681.84;;;9.41;72.43
46448;BME280;32145;50.390;30.778;2023-04-20T09:26:17;99691.84;;;9.40;72.99
46448;BME280;32145;50.390;30.778;2023-04-20T09:29:15;99687.63;;;9.45;73.12
46448;BME280;32145;50.390;30.778;2023-04-20T09:32:20;99682.44;;;9.43;73.71
46448;BME280;32145;50.390;30.778;2023-04-20T09:35:21;99689.25;;;9.46;74.02
46448;BME280;32145;50.390;30.778;2023-04-20T09:38:16;99683.28;;;9.44;73.67
46448;BME280;32145;50.390;30.778;2023-04-20T09:41:10;99682.59;;;9.48;73.68
46448;BME280;32145;50.390;30.778;2023-04-20T09:44:05;99680.00;;;9.53;73.65
46448;BME280;32145;50.390;30.778;2023-04-20T09:46:59;99684.25;;;9.61;73.41
46448;BME280;32145;50.390;30.778;2023-04-20T09:49:55;99679.31;;;9.70;73.27
46448;BME280;32145;50.390;30.778;2023-04-20T09:52:50;99663.81;;;9.77;73.00
46448;BME280;32145;50.390;30.778;2023-04-20T09:55:45;99679.59;;;9.80;73.07
46448;BME280;32145;50.390;30.778;2023-04-20T09:58:41;99681.69;;;9.78;72.45
46448;BME280;32145;50.390;30.778;2023-04-20T10:01:38;99685.69;;;9.76;72.71
46448;BME280;32145;50.390;30.778;2023-04-20T10:04:34;99688.84;;;9.73;72.77
46448;BME280;32145;50.390;30.778;2023-04-20T10:07:32;99689.56;;;9.68;72.35
46448;BME280;32145;50.390;30.778;2023-04-20T10:10:28;99707.31;;;9.64;72.62
46448;BME280;32145;50.390;30.778;2023-04-20T10:13:32;99695.91;;;9.62;72.81
46448;BME280;32145;50.390;30.778;2023-04-20T10:16:28;99698.59;;;9.62;72.32
46448;BME280;32145;50.390;30.778;2023-04-20T10:19:35;99696.75;;;9.62;72.75
46448;BME280;32145;50.390;30.778;2023-04-20T10:22:33;99686.50;;;9.64;72.37
46448;BME280;32145;50.390;30.778;2023-04-20T10:25:29;99698.50;;;9.69;72.64
46448;BME280;32145;50.390;30.778;2023-04-20T10:28:24;99705.47;;;9.76;71.89
46448;BME280;32145;50.390;30.778;2023-04-20T10:31:18;99690.75;;;9.84;71.46
46448;BME280;32145;50.390;30.778;2023-04-20T10:34:14;99690.41;;;9.92;71.90
46448;BME280;32145;50.390;30.778;2023-04-20T10:37:12;99696.78;;;9.98;71.60
46448;BME280;32145;50.390;30.778;2023-04-20T10:40:11;99694.44;;;10.02;71.29
46448;BME280;32145;50.390;30.778;2023-04-20T10:43:18;99699.97;;;10.07;71.17
46448;BME280;32145;50.390;30.778;2023-04-20T10:46:15;99705.84;;;10.04;71.25
46448;BME280;32145;50.390;30.778;2023-04-20T10:49:09;99706.09;;;10.02;70.70
46448;BME280;32145;50.390;30.778;2023-04-20T10:52:03;99704.06;;;9.98;71.09
46448;BME280;32145;50.390;30.778;2023-04-20T10:54:58;99705.84;;;9.92;71.54
46448;BME280;32145;50.390;30.778;2023-04-20T10:57:56;99715.25;;;9.89;71.92
46448;BME280;32145;50.390;30.778;2023-04-20T11:00:56;99721.00;;;9.81;72.45
46448;BME280;32145;50.390;30.778;2023-04-20T11:03:52;99715.94;;;9.73;72.76
46448;BME280;32145;50.390;30.778;2023-04-20T11:06:49;99716.03;;;9.66;73.01
46448;BME280;32145;50.390;30.778;2023-04-20T11:09:43;99706.50;;;9.63;72.72
46448;BME280;32145;50.390;30.778;2023-04-20T11:12:39;99711.91;;;9.63;73.23
46448;BME280;32145;50.390;30.778;2023-04-20T11:15:37;99718.13;;;9.64;72.95
46448;BME280;32145;50.390;30.778;2023-04-20T11:18:33;99723.53;;;9.64;73.29
46448;BME280;32145;50.390;30.778;2023-04-20T11:21:37;99722.88;;;9.69;72.70
46448;BME280;32145;50.390;30.778;2023-04-20T11:24:33;99716.88;;;9.66;71.84
46448;BME280;32145;50.390;30.778;2023-04-20T11:27:29;99714.75;;;9.69;71.77
46448;BME280;32145;50.390;30.778;2023-04-20T11:30:38;99719.00;;;9.76;71.41
46448;BME280;32145;50.390;30.778;2023-04-20T11:33:34;99714.19;;;9.78;71.45
46448;BME280;32145;50.390;30.778;2023-04-20T11:36:28;99721.63;;;9.83;71.60
46448;BME280;32145;50.390;30.778;2023-04-20T11:39:23;99713.59;;;9.88;70.63
46448;BME280;32145;50.390;30.778;2023-04-20T11:42:18;99714.78;;;9.92;70.52
46448;BME280;32145;50.390;30.778;2023-04-20T11:45:12;99704.06;;;9.98;69.97
46448;BME280;32145;50.390;30.778;2023-04-20T11:48:07;99708.00;;;10.02;69.38
46448;BME280;32145;50.390;30.778;2023-04-20T11:51:04;99707.03;;;10.08;69.37
46448;BME280;32145;50.390;30.778;2023-04-20T11:54:00;99705.50;;;10.12;68.52
46448;BME280;32145;50.390;30.778;2023-04-20T11:56:54;99691.50;;;10.15;67.86
46448;BME280;32145;50.390;30.778;2023-04-20T11:59:49;99706.44;;;10.18;67.97
46448;BME280;32145;50.390;30.778;2023-04-20T12:02:43;99704.69;;;10.24;67.57
46448;BME280;32145;50.390;30.778;2023-04-20T12:05:39;99696.66;;;10.29;67.73
46448;BME280;32145;50.390;30.778;2023-04-20T12:08:34;99697.84;;;10.33;66.87
46448;BME280;32145;50.390;30.778;2023-04-20T12:11:28;99693.59;;;10.37;66.83
46448;BME280;32145;50.390;30.778;2023-04-20T12:14:22;99699.16;;;10.42;66.94
46448;BME280;32145;50.390;30.778;2023-04-20T12:17:19;99690.59;;;10.46;66.74
46448;BME280;32145;50.390;30.778;2023-04-20T12:20:15;99690.09;;;10.49;66.06
46448;BME280;32145;50.390;30.778;2023-04-20T12:23:13;99692.56;;;10.50;65.64
46448;BME280;32145;50.390;30.778;2023-04-20T12:26:07;99690.69;;;10.51;65.04
46448;BME280;32145;50.390;30.778;2023-04-20T12:29:01;99687.38;;;10.49;64.71
46448;BME280;32145;50.390;30.778;2023-04-20T12:31:56;99691.75;;;10.50;64.78
46448;BME280;32145;50.390;30.778;2023-04-20T12:34:50;99689.06;;;10.50;64.76
46448;BME280;32145;50.390;30.778;2023-04-20T12:37:44;99687.38;;;10.49;65.16
46448;BME280;32145;50.390;30.778;2023-04-20T12:40:40;99695.50;;;10.49;64.41
46448;BME280;32145;50.390;30.778;2023-04-20T12:43:34;99685.50;;;10.49;65.09
46448;BME280;32145;50.390;30.778;2023-04-20T12:46:28;99682.56;;;10.51;64.60
46448;BME280;32145;50.390;30.778;2023-04-20T12:49:23;99681.50;;;10.52;64.47
46448;BME280;32145;50.390;30.778;2023-04-20T12:52:17;99686.44;;;10.55;64.35
46448;BME280;32145;50.390;30.778;2023-04-20T12:55:11;99685.84;;;10.53;64.20
46448;BME280;32145;50.390;30.778;2023-04-20T12:58:09;99690.09;;;10.49;64.52
46448;BME280;32145;50.390;30.778;2023-04-20T13:01:05;99687.47;;;10.42;64.37
46448;BME280;32145;50.390;30.778;2023-04-20T13:04:01;99689.84;;;10.38;64.28
46448;BME280;32145;50.390;30.778;2023-04-20T13:06:56;99697.47;;;10.41;65.21
46448;BME280;32145;50.390;30.778;2023-04-20T13:09:50;99711.63;;;10.43;64.56
46448;BME280;32145;50.390;30.778;2023-04-20T13:12:44;99706.91;;;10.39;64.43
46448;BME280;32145;50.390;30.778;2023-04-20T13:15:40;99696.22;;;10.32;64.95
46448;BME280;32145;50.390;30.778;2023-04-20T13:18:34;99700.44;;;10.28;64.79
46448;BME280;32145;50.390;30.778;2023-04-20T13:21:29;99685.25;;;10.27;63.10
46448;BME280;32145;50.390;30.778;2023-04-20T13:24:23;99687.97;;;10.27;63.29
46448;BME280;32145;50.390;30.778;2023-04-20T13:27:17;99679.25;;;10.25;63.63
46448;BME280;32145;50.390;30.778;2023-04-20T13:30:14;99684.19;;;10.28;63.06
46448;BME280;32145;50.390;30.778;2023-04-20T13:33:12;99678.31;;;10.31;62.49
46448;BME280;32145;50.390;30.778;2023-04-20T13:36:08;99673.22;;;10.35;63.19
46448;BME280;32145;50.390;30.778;2023-04-20T13:39:02;99678.41;;;10.36;62.68
46448;BME280;32145;50.390;30.778;2023-04-20T13:41:57;99679.00;;;10.38;61.67
46448;BME280;32145;50.390;30.778;2023-04-20T13:44:53;99678.50;;;10.41;61.15
46448;BME280;32145;50.390;30.778;2023-04-20T13:47:49;99679.13;;;10.43;61.00
46448;BME280;32145;50.390;30.778;2023-04-20T13:50:45;99687.25;;;10.43;60.64
46448;BME280;32145;50.390;30.778;2023-04-20T13:53:39;99685.16;;;10.46;60.67
46448;BME280;32145;50.390;30.778;2023-04-20T13:56:34;99692.22;;;10.47;59.82
46448;BME280;32145;50.390;30.778;2023-04-20T13:59:28;99685.75;;;10.48;59.84
46448;BME280;32145;50.390;30.778;2023-04-20T14:02:22;99682.47;;;10.46;60.21
46448;BME280;32145;50.390;30.778;2023-04-20T14:05:17;99679.75;;;10.46;60.07
46448;BME280;32145;50.390;30.778;2023-04-20T14:08:12;99679.75;;;10.46;60.98
46448;BME280;32145;50.390;30.778;2023-04-20T14:11:09;99678.69;;;10.47;61.00
46448;BME280;32145;50.390;30.778;2023-04-20T14:14:03;99683.50;;;10.44;60.69
46448;BME280;32145;50.390;30.778;2023-04-20T14:16:57;99674.34;;;10.46;61.00
46448;BME280;32145;50.390;30.778;2023-04-20T14:19:52;99672.78;;;10.50;60.35
46448;BME280;32145;50.390;30.778;2023-04-20T14:22:46;99678.78;;;10.52;61.32
46448;BME280;32145;50.390;30.778;2023-04-20T14:25:42;99679.38;;;10.54;61.41
46448;BME280;32145;50.390;30.778;2023-04-20T14:28:36;99684.81;;;10.54;60.70
46448;BME280;32145;50.390;30.778;2023-04-20T14:31:30;99683.72;;;10.55;61.14
46448;BME280;32145;50.390;30.778;2023-04-20T14:34:26;99681.59;;;10.57;61.22
46448;BME280;32145;50.390;30.778;2023-04-20T14:37:23;99677.84;;;10.58;61.35
46448;BME280;32145;50.390;30.778;2023-04-20T14:40:17;99683.25;;;10.58;60.79
46448;BME280;32145;50.390;30.778;2023-04-20T14:43:13;99693.59;;;10.61;60.84
46448;BME280;32145;50.390;30.778;2023-04-20T14:46:07;99674.75;;;10.66;60.92
46448;BME280;32145;50.390;30.778;2023-04-20T14:49:01;99691.59;;;10.68;59.68
46448;BME280;32145;50.390;30.778;2023-04-20T14:51:58;99698.19;;;10.73;59.38
46448;BME280;32145;50.390;30.778;2023-04-20T14:54:55;99697.94;;;10.74;59.66
46448;BME280;32145;50.390;30.778;2023-04-20T14:57:53;99695.00;;;10.76;59.41
46448;BME280;32145;50.390;30.778;2023-04-20T15:00:52;99695.00;;;10.76;60.42
46448;BME280;32145;50.390;30.778;2023-04-20T15:03:47;99698.78;;;10.75;60.40
46448;BME280;32145;50.390;30.778;2023-04-20T15:06:41;99704.22;;;10.75;60.00
46448;BME280;32145;50.390;30.778;2023-04-20T15:09:37;99702.06;;;10.77;60.38
46448;BME280;32145;50.390;30.778;2023-04-20T15:12:33;99692.88;;;10.78;59.44
46448;BME280;32145;50.390;30.778;2023-04-20T15:15:28;99700.53;;;10.81;60.02
46448;BME280;32145;50.390;30.778;2023-04-20T15:18:23;99693.22;;;10.81;59.95
46448;BME280;32145;50.390;30.778;2023-04-20T15:21:21;99697.34;;;10.84;59.68
46448;BME280;32145;50.390;30.778;2023-04-20T15:24:15;99693.31;;;10.87;59.95